createdAt,value
2022-07-25T00:01:52.387Z,23.60
2022-07-25T00:04:20.202Z,23.54
2022-07-25T00:06:47.865Z,23.53
2022-07-25T00:09:15.336Z,23.36
2022-07-25T00:11:42.967Z,23.24
2022-07-25T00:14:10.655Z,23.13
2022-07-25T00:16:38.581Z,23.17
2022-07-25T00:19:05.995Z,23.20
2022-07-25T00:21:33.788Z,23.34
2022-07-25T00:24:01.484Z,23.27
2022-07-25T00:26:28.912Z,23.21
2022-07-25T00:28:56.268Z,23.04
2022-07-25T00:31:23.790Z,22.85
2022-07-25T00:33:51.363Z,22.82
2022-07-25T00:36:18.722Z,22.95
2022-07-25T00:38:46.321Z,23.10
2022-07-25T00:41:13.883Z,23.09
2022-07-25T00:43:45.060Z,23.17
2022-07-25T00:46:13.947Z,23.14
2022-07-25T00:48:46.265Z,23.13
2022-07-25T00:51:14.009Z,22.93
2022-07-25T00:53:41.347Z,22.75
2022-07-25T00:56:09.318Z,22.63
2022-07-25T00:58:36.898Z,22.68
2022-07-25T01:01:04.239Z,22.52
2022-07-25T01:03:32.202Z,22.61
2022-07-25T01:05:59.704Z,22.75
2022-07-25T01:08:27.192Z,22.79
2022-07-25T01:10:54.749Z,22.86
2022-07-25T01:13:22.202Z,22.83
2022-07-25T01:15:50.897Z,22.86
2022-07-25T01:18:18.484Z,22.81
2022-07-25T01:20:45.791Z,22.61
2022-07-25T01:23:13.385Z,22.66
2022-07-25T01:25:40.888Z,22.83
2022-07-25T01:28:08.245Z,22.72
2022-07-25T01:30:35.935Z,22.56
2022-07-25T01:33:07.169Z,22.55
2022-07-25T01:35:35.647Z,22.34
2022-07-25T01:38:05.511Z,22.35
2022-07-25T01:40:32.783Z,22.44
2022-07-25T01:43:00.255Z,22.41
2022-07-25T01:45:27.717Z,22.49
2022-07-25T01:47:55.234Z,22.52
2022-07-25T01:50:22.619Z,22.47
2022-07-25T01:52:50.390Z,22.33
2022-07-25T01:55:18.212Z,22.34
2022-07-25T01:57:48.628Z,22.37
2022-07-25T02:00:17.812Z,22.11
2022-07-25T02:02:45.699Z,21.86
2022-07-25T02:05:14.117Z,21.70
2022-07-25T02:07:41.383Z,21.65
2022-07-25T02:10:09.277Z,21.55
2022-07-25T02:12:36.817Z,21.53
2022-07-25T02:15:04.607Z,21.69
2022-07-25T02:17:31.986Z,21.76
2022-07-25T02:19:59.449Z,21.75
2022-07-25T02:22:27.038Z,21.79
2022-07-25T02:24:54.325Z,21.90
2022-07-25T02:27:22.049Z,21.77
2022-07-25T02:29:49.436Z,21.79
2022-07-25T02:32:16.937Z,21.63
2022-07-25T02:34:44.528Z,21.50
2022-07-25T02:37:13.220Z,21.41
2022-07-25T02:39:40.606Z,21.47
2022-07-25T02:42:08.171Z,21.62
2022-07-25T02:44:35.445Z,21.79
2022-07-25T02:47:02.921Z,21.92
2022-07-25T02:49:30.368Z,22.01
2022-07-25T02:51:58.005Z,21.97
2022-07-25T02:54:25.414Z,22.01
2022-07-25T02:56:52.800Z,21.93
2022-07-25T02:59:20.351Z,22.01
2022-07-25T03:01:47.940Z,22.03
2022-07-25T03:04:16.125Z,21.90
2022-07-25T03:06:45.012Z,21.80
2022-07-25T03:09:12.557Z,21.76
2022-07-25T03:11:39.822Z,21.63
2022-07-25T03:14:10.408Z,21.55
2022-07-25T03:16:37.891Z,21.50
2022-07-25T03:19:05.674Z,21.49
2022-07-25T03:21:32.991Z,21.62
2022-07-25T03:24:00.466Z,21.70
2022-07-25T03:26:27.735Z,21.65
2022-07-25T03:28:55.222Z,21.57
2022-07-25T03:31:22.727Z,21.62
2022-07-25T03:33:50.255Z,21.56
2022-07-25T03:36:17.704Z,21.66
2022-07-25T03:38:45.433Z,21.80
2022-07-25T03:41:13.683Z,21.86
2022-07-25T03:43:41.184Z,21.87
2022-07-25T03:46:08.810Z,22.00
2022-07-25T03:48:36.248Z,22.14
2022-07-25T03:51:07.057Z,22.13
2022-07-25T03:53:55.662Z,22.18
2022-07-25T03:56:23.037Z,22.20
2022-07-25T03:58:50.670Z,22.13
2022-07-25T04:01:17.999Z,21.93
2022-07-25T04:03:46.827Z,21.94
2022-07-25T04:06:14.480Z,21.87
2022-07-25T04:08:41.832Z,21.94
2022-07-25T04:11:09.309Z,21.93
2022-07-25T04:13:36.855Z,21.92
2022-07-25T04:16:04.688Z,22.03
2022-07-25T04:18:33.695Z,22.15
2022-07-25T04:21:02.358Z,22.00
2022-07-25T04:23:29.823Z,22.01
2022-07-25T04:25:57.470Z,22.08
2022-07-25T04:28:25.484Z,22.07
2022-07-25T04:30:53.027Z,22.07
2022-07-25T04:33:20.655Z,21.96
2022-07-25T04:35:48.173Z,21.83
2022-07-25T04:38:15.609Z,21.97
2022-07-25T04:40:43.001Z,22.00
2022-07-25T04:43:10.426Z,21.97
2022-07-25T04:45:37.977Z,21.97
2022-07-25T04:48:05.542Z,22.01
2022-07-25T04:50:32.949Z,22.10
2022-07-25T04:53:00.981Z,22.14
2022-07-25T04:55:28.377Z,22.05
2022-07-25T04:57:55.724Z,22.11
2022-07-25T05:00:23.946Z,22.10
2022-07-25T05:02:51.799Z,22.07
2022-07-25T05:05:21.157Z,22.17
2022-07-25T05:07:50.593Z,22.14
2022-07-25T05:10:18.218Z,22.28
2022-07-25T05:12:45.540Z,22.28
2022-07-25T05:15:13.469Z,22.54
2022-07-25T05:17:40.930Z,22.63
2022-07-25T05:20:08.981Z,22.55
2022-07-25T05:22:36.711Z,22.69
2022-07-25T05:25:07.398Z,22.75
2022-07-25T05:27:35.009Z,22.91
2022-07-25T05:30:02.409Z,23.00
2022-07-25T05:32:29.965Z,23.24
2022-07-25T05:34:59.497Z,23.54
2022-07-25T05:37:27.080Z,23.71
2022-07-25T05:39:54.554Z,23.92
2022-07-25T05:42:21.889Z,24.13
2022-07-25T05:44:49.398Z,24.26
2022-07-25T05:47:16.911Z,24.16
2022-07-25T05:49:44.971Z,24.25
2022-07-25T05:52:13.232Z,24.32
2022-07-25T05:54:41.000Z,24.23
2022-07-25T05:57:08.483Z,24.01
2022-07-25T05:59:35.759Z,23.82
2022-07-25T06:02:03.408Z,23.98
2022-07-25T06:04:31.165Z,23.65
2022-07-25T06:06:58.835Z,23.68
2022-07-25T06:09:26.138Z,23.86
2022-07-25T06:12:00.476Z,23.88
2022-07-25T06:14:28.975Z,24.02
2022-07-25T06:16:57.283Z,24.15
2022-07-25T06:19:24.697Z,24.16
2022-07-25T06:21:52.366Z,24.12
2022-07-25T06:24:21.349Z,24.20
2022-07-25T06:26:48.706Z,24.28
2022-07-25T06:29:16.322Z,24.32
2022-07-25T06:31:46.356Z,24.44
2022-07-25T06:34:14.699Z,24.50
2022-07-25T06:36:42.412Z,24.61
2022-07-25T06:39:09.854Z,24.91
2022-07-25T06:41:37.802Z,25.58
2022-07-25T06:44:05.809Z,27.78
2022-07-25T06:46:33.461Z,29.32
2022-07-25T06:49:01.342Z,30.30
2022-07-25T06:51:28.795Z,31.36
2022-07-25T06:53:56.975Z,31.00
2022-07-25T06:56:24.381Z,31.36
2022-07-25T06:58:53.432Z,31.88
2022-07-25T07:01:20.854Z,32.53
2022-07-25T07:03:48.727Z,31.82
2022-07-25T07:06:16.434Z,32.45
2022-07-25T07:08:43.882Z,32.86
2022-07-25T07:11:11.342Z,33.65
2022-07-25T07:13:38.837Z,34.06
2022-07-25T07:16:06.628Z,33.11
2022-07-25T07:18:34.092Z,32.88
2022-07-25T07:21:01.475Z,31.81
2022-07-25T07:23:29.266Z,32.01
2022-07-25T07:25:57.375Z,32.83
2022-07-25T07:28:24.907Z,33.91
2022-07-25T07:31:15.852Z,33.81
2022-07-25T07:33:39.932Z,34.81
2022-07-25T07:36:07.472Z,33.69
2022-07-25T07:38:35.200Z,33.50
2022-07-25T07:41:02.547Z,33.47
2022-07-25T07:43:32.088Z,33.21
2022-07-25T07:46:01.558Z,33.50
2022-07-25T07:48:30.137Z,33.59
2022-07-25T07:50:57.859Z,32.96
2022-07-25T07:53:45.622Z,33.41
2022-07-25T07:56:13.934Z,33.89
2022-07-25T07:58:41.231Z,33.07
2022-07-25T08:01:08.738Z,32.65
2022-07-25T08:03:36.465Z,32.91
2022-07-25T08:06:04.315Z,32.87
2022-07-25T08:08:31.867Z,33.45
2022-07-25T08:10:59.911Z,33.02
2022-07-25T08:13:30.322Z,33.13
2022-07-25T08:16:00.220Z,33.11
2022-07-25T08:18:30.006Z,32.73
2022-07-25T08:20:57.651Z,32.86
2022-07-25T08:23:28.017Z,34.09
2022-07-25T08:25:55.692Z,33.95
2022-07-25T08:28:23.435Z,34.74
2022-07-25T08:30:51.028Z,35.11
2022-07-25T08:33:18.823Z,35.14
2022-07-25T08:35:48.164Z,35.02
2022-07-25T08:38:16.023Z,34.13
2022-07-25T08:40:43.524Z,34.51
2022-07-25T08:43:15.219Z,34.44
2022-07-25T08:45:48.012Z,34.01
2022-07-25T08:48:18.287Z,33.35
2022-07-25T08:50:46.345Z,33.43
2022-07-25T08:53:32.632Z,34.32
2022-07-25T08:56:01.902Z,34.24
2022-07-25T08:58:31.727Z,34.41
2022-07-25T09:00:59.252Z,34.16
2022-07-25T09:03:26.846Z,33.91
2022-07-25T09:05:54.476Z,32.86
2022-07-25T09:08:21.850Z,31.92
2022-07-25T09:10:52.710Z,31.25
2022-07-25T09:13:21.444Z,30.78
2022-07-25T09:15:53.964Z,30.76
2022-07-25T09:18:25.985Z,30.52
2022-07-25T09:20:58.938Z,30.54
2022-07-25T09:23:36.202Z,30.72
2022-07-25T09:26:06.622Z,30.40
2022-07-25T09:28:47.450Z,30.57
2022-07-25T09:31:15.672Z,30.79
2022-07-25T09:33:47.888Z,30.64
2022-07-25T09:36:15.835Z,30.65
2022-07-25T09:38:56.077Z,30.78
2022-07-25T09:41:41.662Z,30.55
2022-07-25T09:44:23.249Z,30.64
2022-07-25T09:46:50.851Z,30.79
2022-07-25T09:49:19.433Z,31.11
2022-07-25T09:51:47.430Z,30.92
2022-07-25T09:54:15.152Z,30.91
2022-07-25T09:56:42.619Z,30.96
2022-07-25T09:59:10.073Z,31.29
2022-07-25T10:01:47.739Z,31.27
2022-07-25T10:04:22.624Z,31.54
2022-07-25T10:06:56.465Z,31.63
2022-07-25T10:09:23.993Z,31.13
2022-07-25T10:12:08.735Z,31.13
2022-07-25T10:14:36.628Z,31.57
2022-07-25T10:17:04.534Z,31.70
2022-07-25T10:19:49.227Z,31.78
2022-07-25T10:22:29.433Z,31.78
2022-07-25T10:25:20.618Z,31.73
2022-07-25T10:27:58.496Z,32.17
2022-07-25T10:30:27.612Z,32.36
2022-07-25T10:33:02.799Z,32.21
2022-07-25T10:35:31.015Z,32.28
2022-07-25T10:37:59.142Z,32.31
2022-07-25T10:40:38.446Z,32.51
2022-07-25T10:43:05.778Z,32.76
2022-07-25T10:45:50.754Z,32.90
2022-07-25T10:48:31.606Z,32.43
2022-07-25T10:51:00.100Z,32.67
2022-07-25T10:53:46.262Z,32.63
2022-07-25T10:56:21.177Z,32.96
2022-07-25T10:59:00.427Z,33.11
2022-07-25T11:01:29.578Z,33.03
2022-07-25T11:03:58.923Z,33.02
2022-07-25T11:06:40.614Z,33.04
2022-07-25T11:09:26.473Z,33.17
2022-07-25T11:11:56.885Z,33.04
2022-07-25T11:14:34.312Z,32.84
2022-07-25T11:17:20.245Z,32.94
2022-07-25T11:20:20.262Z,32.88
2022-07-25T11:22:54.984Z,32.99
2022-07-25T11:25:23.240Z,32.80
2022-07-25T11:27:56.768Z,32.87
2022-07-25T11:30:24.446Z,33.04
2022-07-25T11:32:54.588Z,32.99
2022-07-25T11:35:25.901Z,33.07
2022-07-25T11:37:53.671Z,33.17
2022-07-25T11:40:21.132Z,33.34
2022-07-25T11:42:53.438Z,33.51
2022-07-25T11:45:28.362Z,33.83
2022-07-25T11:48:11.792Z,33.44
2022-07-25T11:50:40.626Z,33.57
2022-07-25T11:53:14.755Z,33.58
2022-07-25T11:55:43.983Z,33.92
2022-07-25T11:58:13.086Z,33.58
2022-07-25T12:00:42.593Z,33.21
2022-07-25T12:03:19.439Z,33.00
2022-07-25T12:05:48.149Z,33.38
2022-07-25T12:08:17.475Z,33.74
2022-07-25T12:10:47.671Z,33.92
2022-07-25T12:13:28.884Z,33.76
2022-07-25T12:15:57.294Z,33.79
2022-07-25T12:18:24.755Z,33.43
2022-07-25T12:20:53.453Z,33.57
2022-07-25T12:23:22.101Z,33.54
2022-07-25T12:25:49.925Z,33.75
2022-07-25T12:28:17.443Z,33.72
2022-07-25T12:30:45.735Z,33.69
2022-07-25T12:33:13.563Z,33.48
2022-07-25T12:35:41.685Z,33.72
2022-07-25T12:38:09.143Z,33.47
2022-07-25T12:40:36.570Z,33.64
2022-07-25T12:43:04.400Z,33.23
2022-07-25T12:45:32.138Z,33.64
2022-07-25T12:47:59.480Z,33.68
2022-07-25T12:50:26.854Z,33.89
2022-07-25T12:52:54.230Z,34.16
2022-07-25T12:55:22.030Z,34.10
2022-07-25T12:57:50.095Z,33.88
2022-07-25T13:00:20.499Z,33.57
2022-07-25T13:02:48.648Z,33.58
2022-07-25T13:05:16.150Z,33.74
2022-07-25T13:07:43.743Z,33.79
2022-07-25T13:10:12.761Z,34.10
2022-07-25T13:12:40.305Z,33.93
2022-07-25T13:15:08.677Z,34.02
2022-07-25T13:17:36.218Z,33.93
2022-07-25T13:20:04.514Z,34.22
2022-07-25T13:22:32.147Z,34.37
2022-07-25T13:24:59.413Z,34.33
2022-07-25T13:27:26.740Z,34.39
2022-07-25T13:29:55.013Z,33.91
2022-07-25T13:32:22.690Z,34.10
2022-07-25T13:34:50.215Z,34.37
2022-07-25T13:37:17.764Z,34.16
2022-07-25T13:39:45.088Z,34.16
2022-07-25T13:42:12.900Z,34.49
2022-07-25T13:44:40.240Z,34.36
2022-07-25T13:47:07.629Z,34.22
2022-07-25T13:49:37.144Z,34.46
2022-07-25T13:52:05.050Z,34.60
2022-07-25T13:54:32.612Z,34.56
2022-07-25T13:57:00.045Z,34.43
2022-07-25T13:59:27.655Z,34.53
2022-07-25T14:01:55.111Z,34.66
2022-07-25T14:04:22.820Z,34.47
2022-07-25T14:06:52.353Z,34.49
2022-07-25T14:09:20.857Z,34.56
2022-07-25T14:11:48.508Z,34.01
2022-07-25T14:14:15.976Z,34.10
2022-07-25T14:16:43.801Z,33.86
2022-07-25T14:19:11.455Z,33.91
2022-07-25T14:21:39.190Z,33.61
2022-07-25T14:24:06.852Z,33.68
2022-07-25T14:26:35.144Z,33.64
2022-07-25T14:29:02.631Z,33.74
2022-07-25T14:31:30.422Z,33.75
2022-07-25T14:33:58.240Z,33.75
2022-07-25T14:36:25.772Z,33.85
2022-07-25T14:38:53.191Z,34.32
2022-07-25T14:41:20.698Z,34.46
2022-07-25T14:43:48.300Z,34.26
2022-07-25T14:46:15.790Z,34.19
2022-07-25T14:48:43.499Z,34.23
2022-07-25T14:51:11.210Z,34.22
2022-07-25T14:53:39.208Z,33.95
2022-07-25T14:56:07.665Z,33.88
2022-07-25T14:58:35.500Z,33.95
2022-07-25T15:01:03.121Z,33.99
2022-07-25T15:03:30.659Z,33.89
2022-07-25T15:05:58.042Z,34.27
2022-07-25T15:08:25.395Z,34.08
2022-07-25T15:10:52.823Z,34.17
2022-07-25T15:13:31.137Z,34.29
2022-07-25T15:15:59.612Z,34.09
2022-07-25T15:18:27.153Z,34.16
2022-07-25T15:20:55.759Z,34.30
2022-07-25T15:23:25.226Z,34.49
2022-07-25T15:26:02.693Z,34.16
2022-07-25T15:28:35.474Z,33.86
2022-07-25T15:31:03.474Z,33.65
2022-07-25T15:33:31.574Z,33.61
2022-07-25T15:35:59.187Z,33.51
2022-07-25T15:38:26.501Z,33.35
2022-07-25T15:40:54.432Z,33.20
2022-07-25T15:43:22.052Z,33.31
2022-07-25T15:45:49.459Z,33.44
2022-07-25T15:48:16.949Z,33.47
2022-07-25T15:50:46.302Z,33.61
2022-07-25T15:53:13.877Z,33.58
2022-07-25T15:55:41.628Z,33.65
2022-07-25T15:58:09.941Z,33.71
2022-07-25T16:00:38.652Z,33.62
2022-07-25T16:03:06.725Z,33.27
2022-07-25T16:05:34.232Z,33.33
2022-07-25T16:08:02.122Z,33.27
2022-07-25T16:10:30.676Z,33.21
2022-07-25T16:12:58.245Z,33.17
2022-07-25T16:15:25.609Z,33.16
2022-07-25T16:18:01.867Z,33.30
2022-07-25T16:20:31.958Z,33.28
2022-07-25T16:23:00.560Z,33.24
2022-07-25T16:25:28.169Z,33.25
2022-07-25T16:27:55.961Z,33.28
2022-07-25T16:30:23.377Z,33.35
2022-07-25T16:32:50.820Z,33.35
2022-07-25T16:35:18.278Z,33.40
2022-07-25T16:37:45.679Z,33.34
2022-07-25T16:40:14.538Z,33.16
2022-07-25T16:42:42.177Z,33.11
2022-07-25T16:45:10.156Z,32.99
2022-07-25T16:47:39.698Z,32.91
2022-07-25T16:50:07.371Z,32.77
2022-07-25T16:52:34.899Z,32.84
2022-07-25T16:55:02.578Z,32.96
2022-07-25T16:57:31.193Z,33.00
2022-07-25T16:59:59.537Z,32.90
2022-07-25T17:02:29.749Z,32.88
2022-07-25T17:04:58.154Z,32.84
2022-07-25T17:07:26.354Z,32.79
2022-07-25T17:09:54.048Z,32.63
2022-07-25T17:12:21.523Z,32.66
2022-07-25T17:14:49.146Z,32.70
2022-07-25T17:17:16.498Z,32.69
2022-07-25T17:19:44.240Z,32.51
2022-07-25T17:22:11.762Z,32.52
2022-07-25T17:24:39.504Z,32.48
2022-07-25T17:27:07.893Z,32.39
2022-07-25T17:29:35.607Z,32.22
2022-07-25T17:32:03.219Z,32.21
2022-07-25T17:34:30.753Z,32.24
2022-07-25T17:37:03.093Z,32.04
2022-07-25T17:39:31.027Z,31.94
2022-07-25T17:41:58.605Z,31.95
2022-07-25T17:44:26.139Z,31.95
2022-07-25T17:46:54.327Z,31.91
2022-07-25T17:49:22.218Z,31.77
2022-07-25T17:51:49.633Z,31.63
2022-07-25T17:54:17.269Z,31.44
2022-07-25T17:56:45.584Z,31.25
2022-07-25T17:59:13.788Z,31.23
2022-07-25T18:01:44.260Z,31.11
2022-07-25T18:04:11.845Z,31.16
2022-07-25T18:06:39.533Z,30.99
2022-07-25T18:09:08.030Z,31.03
2022-07-25T18:11:35.561Z,30.82
2022-07-25T18:14:03.099Z,30.69
2022-07-25T18:16:30.545Z,30.61
2022-07-25T18:18:57.967Z,30.62
2022-07-25T18:21:25.327Z,30.45
2022-07-25T18:23:52.826Z,30.40
2022-07-25T18:26:22.193Z,30.35
2022-07-25T18:28:49.941Z,30.21
2022-07-25T18:31:17.414Z,30.24
2022-07-25T18:33:44.991Z,30.16
2022-07-25T18:36:12.357Z,30.07
2022-07-25T18:38:40.619Z,30.07
2022-07-25T18:41:27.900Z,29.97
2022-07-25T18:43:55.973Z,29.75
2022-07-25T18:46:24.104Z,29.63
2022-07-25T18:48:51.837Z,29.49
2022-07-25T18:51:20.239Z,29.58
2022-07-25T18:53:48.864Z,29.44
2022-07-25T18:56:16.701Z,29.51
2022-07-25T18:58:45.048Z,29.31
2022-07-25T19:01:12.554Z,29.36
2022-07-25T19:03:40.910Z,29.36
2022-07-25T19:06:09.064Z,29.39
2022-07-25T19:08:36.727Z,29.35
2022-07-25T19:11:04.249Z,29.31
2022-07-25T19:13:51.147Z,29.34
2022-07-25T19:16:18.925Z,29.21
2022-07-25T19:18:47.064Z,29.11
2022-07-25T19:21:14.408Z,29.18
2022-07-25T19:23:44.674Z,29.17
2022-07-25T19:26:15.811Z,29.10
2022-07-25T19:28:43.110Z,29.10
2022-07-25T19:31:10.867Z,29.06
2022-07-25T19:33:39.044Z,29.08
2022-07-25T19:36:06.811Z,29.01
2022-07-25T19:38:34.270Z,28.91
2022-07-25T19:41:02.355Z,29.03
2022-07-25T19:43:29.956Z,29.03
2022-07-25T19:45:57.734Z,28.78
2022-07-25T19:48:25.192Z,28.74
2022-07-25T19:50:53.064Z,28.60
2022-07-25T19:53:23.103Z,28.70
2022-07-25T19:55:54.198Z,28.66
2022-07-25T19:58:21.520Z,28.64
2022-07-25T20:00:48.934Z,28.64
2022-07-25T20:03:16.414Z,28.66
2022-07-25T20:05:50.935Z,28.66
2022-07-25T20:08:18.973Z,28.66
2022-07-25T20:10:47.467Z,28.83
2022-07-25T20:13:14.924Z,28.70
2022-07-25T20:15:42.350Z,28.59
2022-07-25T20:18:09.638Z,28.53
2022-07-25T20:20:37.550Z,28.45
2022-07-25T20:23:04.938Z,28.26
2022-07-25T20:25:32.919Z,28.06
2022-07-25T20:28:00.383Z,28.11
2022-07-25T20:30:32.911Z,28.02
2022-07-25T20:33:09.040Z,28.09
2022-07-25T20:35:37.810Z,28.11
2022-07-25T20:38:09.722Z,28.13
2022-07-25T20:40:43.822Z,28.08
2022-07-25T20:43:14.376Z,28.06
2022-07-25T20:45:41.765Z,28.01
2022-07-25T20:48:09.699Z,27.97
2022-07-25T20:50:37.663Z,28.01
2022-07-25T20:53:06.234Z,27.97
2022-07-25T20:55:33.852Z,27.82
2022-07-25T20:58:01.574Z,27.82
2022-07-25T21:00:30.610Z,27.78
2022-07-25T21:02:58.607Z,27.81
2022-07-25T21:05:26.156Z,27.76
2022-07-25T21:07:53.539Z,27.74
2022-07-25T21:10:20.995Z,27.68
2022-07-25T21:12:48.472Z,27.53
2022-07-25T21:15:16.130Z,27.41
2022-07-25T21:17:43.541Z,27.47
2022-07-25T21:20:12.253Z,27.50
2022-07-25T21:22:39.943Z,27.51
2022-07-25T21:25:07.786Z,27.58
2022-07-25T21:27:35.363Z,27.58
2022-07-25T21:30:04.992Z,27.62
2022-07-25T21:32:32.509Z,27.62
2022-07-25T21:35:00.233Z,27.61
2022-07-25T21:37:27.630Z,27.55
2022-07-25T21:39:55.091Z,27.50
2022-07-25T21:42:22.392Z,27.55
2022-07-25T21:44:50.468Z,27.49
2022-07-25T21:47:17.930Z,27.53
2022-07-25T21:50:03.764Z,27.55
2022-07-25T21:52:34.791Z,27.50
2022-07-25T21:55:03.051Z,27.47
2022-07-25T21:57:30.926Z,27.39
2022-07-25T21:59:58.330Z,27.44
2022-07-25T22:02:25.869Z,27.37
2022-07-25T22:04:53.335Z,27.13
2022-07-25T22:07:20.664Z,27.02
2022-07-25T22:09:48.010Z,27.03
2022-07-25T22:12:15.795Z,27.00
2022-07-25T22:14:43.187Z,26.95
2022-07-25T22:17:10.775Z,26.95
2022-07-25T22:19:38.149Z,27.02
2022-07-25T22:22:06.259Z,26.99
2022-07-25T22:24:34.014Z,27.02
2022-07-25T22:27:01.288Z,27.09
2022-07-25T22:29:28.875Z,27.09
2022-07-25T22:31:56.322Z,27.12
2022-07-25T22:34:23.855Z,27.13
2022-07-25T22:36:51.467Z,27.10
2022-07-25T22:39:18.894Z,27.10
2022-07-25T22:41:46.372Z,27.07
2022-07-25T22:44:13.682Z,27.02
2022-07-25T22:46:41.073Z,27.19
2022-07-25T22:49:08.879Z,26.99
2022-07-25T22:51:36.666Z,26.91
2022-07-25T22:54:05.398Z,26.85
2022-07-25T22:56:32.773Z,26.83
2022-07-25T22:59:00.166Z,26.83
2022-07-25T23:01:27.881Z,26.95
2022-07-25T23:03:55.314Z,26.85
2022-07-25T23:06:22.870Z,26.86
2022-07-25T23:08:50.380Z,26.79
2022-07-25T23:11:17.867Z,26.78
2022-07-25T23:13:45.332Z,26.72
2022-07-25T23:16:12.981Z,26.76
2022-07-25T23:18:40.480Z,26.61
2022-07-25T23:21:07.940Z,26.67
2022-07-25T23:23:35.366Z,26.59
2022-07-25T23:26:03.237Z,26.35
2022-07-25T23:28:30.646Z,26.08
2022-07-25T23:30:57.980Z,26.16
2022-07-25T23:33:26.116Z,26.17
2022-07-25T23:35:54.050Z,26.17
2022-07-25T23:38:21.990Z,26.16
2022-07-25T23:40:49.930Z,26.04
2022-07-25T23:43:26.788Z,26.04
2022-07-25T23:46:06.445Z,26.06
2022-07-25T23:48:35.129Z,26.04
2022-07-25T23:51:02.477Z,25.97
2022-07-25T23:53:29.798Z,25.89
2022-07-25T23:55:57.257Z,25.92
2022-07-25T23:58:24.810Z,25.87
